Time;durP1;ratioP1;P1;durP2;ratioP2;P2;SDS_P1;SDS_P2;PMS_P1;PMS_P2;Temp;Humidity;BMP_temperature;BMP_pressure;BME280_temperature;BME280_humidity;BME280_pressure;Samples;Min_cycle;Max_cycle;Signal;HPM_P1;HPM_P2
2023/10/01 00:01:36;;;;;;;;;;;10.70;99.90;;;;;;5083149;28;19955;-76
2023/10/01 00:04:04;;;;;;;;;;;10.60;99.90;;;;;;5086445;28;19979;-75
2023/10/01 00:06:31;;;;;;;;;;;10.50;99.90;;;;;;5085555;28;19962;-76
2023/10/01 00:08:58;;;;;;;;;;;10.50;99.90;;;;;;5083867;28;19921;-75
2023/10/01 00:11:27;;;;;;;;;;;10.50;99.90;;;;;;5086154;28;19920;-74
2023/10/01 00:13:54;;;;;;;;;;;10.50;99.90;;;;;;5085746;28;19920;-74
2023/10/01 00:16:20;;;;;;;;;;;10.50;99.90;;;;;;5085320;28;20261;-75
2023/10/01 00:18:47;;;;;;;;;;;10.40;99.90;;;;;;5086179;28;19956;-75
2023/10/01 00:21:14;;;;;;;;;;;10.40;99.90;;;;;;5086272;28;19921;-74
2023/10/01 00:23:41;;;;;;;;;;;10.40;99.90;;;;;;5085936;28;20230;-75
2023/10/01 00:26:08;;;;;;;;;;;10.40;99.90;;;;;;5085738;28;20186;-75
2023/10/01 00:28:36;;;;;;;;;;;10.30;99.90;;;;;;5085187;28;19924;-75
2023/10/01 00:31:02;;;;;;;;;;;10.30;99.90;;;;;;5085852;28;20142;-75
2023/10/01 00:33:29;;;;;;;;;;;10.30;99.90;;;;;;5085605;28;19920;-74
2023/10/01 00:35:56;;;;;;;;;;;10.30;99.90;;;;;;5085268;28;19927;-74
2023/10/01 00:38:22;;;;;;;;;;;10.30;99.90;;;;;;5085828;28;20238;-75
2023/10/01 00:40:50;;;;;;;;;;;10.20;99.90;;;;;;5085883;28;19952;-74
2023/10/01 00:43:16;;;;;;;;;;;10.20;99.90;;;;;;5085743;28;19994;-74
2023/10/01 00:45:44;;;;;;;;;;;10.20;99.90;;;;;;5085200;28;19927;-75
2023/10/01 00:48:14;;;;;;;;;;;10.30;99.90;;;;;;5085314;28;20099;-75
2023/10/01 00:50:41;;;;;;;;;;;10.20;99.90;;;;;;5085702;28;19921;-75
2023/10/01 00:53:09;;;;;;;;;;;10.20;99.90;;;;;;5090210;28;20103;-74
2023/10/01 00:55:36;;;;;;;;;;;10.20;99.90;;;;;;5085010;28;19927;-74
2023/10/01 00:58:03;;;;;;;;;;;10.20;99.90;;;;;;5089702;28;19920;-75
2023/10/01 01:00:30;;;;;;;;;;;10.20;99.90;;;;;;5085108;28;19988;-74
2023/10/01 01:03:05;;;;;;;;;;;10.20;99.90;;;;;;5085354;28;19956;-75
2023/10/01 01:05:35;;;;;;;;;;;10.10;99.90;;;;;;5084809;28;19921;-75
2023/10/01 01:08:09;;;;;;;;;;;10.10;99.90;;;;;;5084292;28;19924;-75
2023/10/01 01:10:41;;;;;;;;;;;10.10;99.90;;;;;;5084242;28;20389;-74
2023/10/01 01:13:08;;;;;;;;;;;10.10;99.90;;;;;;5085139;28;19921;-75
2023/10/01 01:15:35;;;;;;;;;;;10.00;99.90;;;;;;5084653;28;19986;-74
2023/10/01 01:18:06;;;;;;;;;;;10.00;99.90;;;;;;5085129;28;19924;-74
2023/10/01 01:20:36;;;;;;;;;;;10.00;99.90;;;;;;5084852;28;19921;-74
2023/10/01 01:23:06;;;;;;;;;;;10.10;99.90;;;;;;5084810;28;20174;-74
2023/10/01 01:25:33;;;;;;;;;;;10.00;99.90;;;;;;5084269;28;19920;-75
2023/10/01 01:28:00;;;;;;;;;;;10.00;99.90;;;;;;5078870;28;19958;-74
2023/10/01 01:30:29;;;;;;;;;;;10.00;99.90;;;;;;5084613;28;19920;-75
2023/10/01 01:32:57;;;;;;;;;;;9.90;99.90;;;;;;5083343;28;19940;-75
2023/10/01 01:35:28;;;;;;;;;;;9.90;99.90;;;;;;5082446;28;19995;-75
2023/10/01 01:37:56;;;;;;;;;;;9.90;99.90;;;;;;5084458;28;19928;-75
2023/10/01 01:40:25;;;;;;;;;;;9.80;99.90;;;;;;5084713;28;19988;-74
2023/10/01 01:42:56;;;;;;;;;;;9.80;99.90;;;;;;5086845;28;19920;-75
2023/10/01 01:45:27;;;;;;;;;;;9.80;99.90;;;;;;5084228;28;19927;-75
2023/10/01 01:47:53;;;;;;;;;;;9.80;99.90;;;;;;5092287;28;19982;-75
2023/10/01 01:50:26;;;;;;;;;;;9.80;99.90;;;;;;5086429;28;20145;-75
2023/10/01 01:52:56;;;;;;;;;;;9.80;99.90;;;;;;5084179;28;19920;-75
2023/10/01 01:55:26;;;;;;;;;;;9.80;99.90;;;;;;5088748;28;20149;-74
2023/10/01 01:58:06;;;;;;;;;;;9.70;99.90;;;;;;5084335;28;19934;-75
2023/10/01 02:00:34;;;;;;;;;;;9.70;99.90;;;;;;5088817;28;19927;-74
2023/10/01 02:03:10;;;;;;;;;;;9.70;99.90;;;;;;5084186;28;19920;-75
2023/10/01 02:05:38;;;;;;;;;;;9.60;99.90;;;;;;5079799;28;19950;-76
2023/10/01 02:08:08;;;;;;;;;;;9.60;99.90;;;;;;5084075;28;20007;-76
2023/10/01 02:10:44;;;;;;;;;;;9.60;99.90;;;;;;5080627;28;19956;-75
2023/10/01 02:13:12;;;;;;;;;;;9.60;99.90;;;;;;5083931;28;19927;-76
2023/10/01 02:15:39;;;;;;;;;;;9.50;99.90;;;;;;5083644;28;19952;-75
2023/10/01 02:18:08;;;;;;;;;;;9.50;99.90;;;;;;5087047;28;20218;-76
2023/10/01 02:20:35;;;;;;;;;;;9.50;99.90;;;;;;5097317;28;19951;-76
2023/10/01 02:23:03;;;;;;;;;;;9.50;99.90;;;;;;5094791;28;19952;-76
2023/10/01 02:25:37;;;;;;;;;;;9.50;99.90;;;;;;5096192;28;19971;-75
2023/10/01 02:28:13;;;;;;;;;;;9.40;99.90;;;;;;5078048;28;19966;-75
2023/10/01 02:30:41;;;;;;;;;;;9.40;99.90;;;;;;5083958;28;19920;-75
2023/10/01 02:33:17;;;;;;;;;;;9.40;99.90;;;;;;5083909;28;19924;-75
2023/10/01 02:35:46;;;;;;;;;;;9.30;99.90;;;;;;5080865;28;20265;-75
2023/10/01 02:40:58;;;;;;;;;;;9.30;99.90;;;;;;5083749;28;19923;-76
2023/10/01 02:43:26;;;;;;;;;;;9.30;99.90;;;;;;5083347;28;19929;-76
2023/10/01 02:45:53;;;;;;;;;;;9.30;99.90;;;;;;5083121;28;19920;-74
2023/10/01 02:48:18;;;;;;;;;;;9.20;99.90;;;;;;5083311;28;19956;-75
2023/10/01 02:50:52;;;;;;;;;;;9.20;99.90;;;;;;5083514;28;19916;-76
2023/10/01 02:53:22;;;;;;;;;;;9.10;99.90;;;;;;5089758;28;20157;-75
2023/10/01 02:55:48;;;;;;;;;;;9.10;99.90;;;;;;5089690;28;19920;-76
2023/10/01 02:58:20;;;;;;;;;;;9.10;99.90;;;;;;5090163;28;20109;-75
2023/10/01 03:00:50;;;;;;;;;;;9.00;99.90;;;;;;5090009;28;19921;-75
2023/10/01 03:03:18;;;;;;;;;;;9.00;99.90;;;;;;5093117;28;20148;-75
2023/10/01 03:05:46;;;;;;;;;;;9.00;99.90;;;;;;5088755;28;19933;-75
2023/10/01 03:08:41;;;;;;;;;;;9.00;99.90;;;;;;5090175;28;20149;-75
2023/10/01 03:11:04;;;;;;;;;;;9.00;99.90;;;;;;5085266;28;19988;-76
2023/10/01 03:13:31;;;;;;;;;;;9.00;99.90;;;;;;5099513;28;20107;-75
2023/10/01 03:18:55;;;;;;;;;;;8.90;99.90;;;;;;5088326;28;19932;-76
2023/10/01 03:24:03;;;;;;;;;;;8.90;99.90;;;;;;5085137;28;19948;-75
2023/10/01 03:26:33;;;;;;;;;;;8.80;99.90;;;;;;5089553;28;19928;-75
2023/10/01 03:29:17;;;;;;;;;;;8.80;99.90;;;;;;5080267;28;19927;-75
2023/10/01 03:31:46;;;;;;;;;;;8.80;99.90;;;;;;5088132;28;19920;-75
2023/10/01 03:34:28;;;;;;;;;;;8.80;99.90;;;;;;5089888;28;19943;-75
2023/10/01 03:36:58;;;;;;;;;;;8.80;99.90;;;;;;5089470;28;19928;-76
2023/10/01 03:39:26;;;;;;;;;;;8.80;99.90;;;;;;5089820;28;19956;-75
2023/10/01 03:42:10;;;;;;;;;;;8.80;99.90;;;;;;5089895;28;19927;-75
2023/10/01 03:44:59;;;;;;;;;;;8.80;99.90;;;;;;5086380;28;19927;-74
2023/10/01 03:47:27;;;;;;;;;;;8.80;99.90;;;;;;5089643;28;19921;-74
2023/10/01 03:49:55;;;;;;;;;;;8.80;99.90;;;;;;5089782;28;19920;-75
2023/10/01 03:52:22;;;;;;;;;;;8.80;99.90;;;;;;5088565;28;19920;-74
2023/10/01 03:55:00;;;;;;;;;;;8.80;99.90;;;;;;5089445;28;19955;-75
2023/10/01 03:57:29;;;;;;;;;;;8.80;99.90;;;;;;5087205;28;19921;-75
2023/10/01 03:59:57;;;;;;;;;;;8.80;99.90;;;;;;5083820;28;19920;-74
2023/10/01 04:02:46;;;;;;;;;;;8.80;99.90;;;;;;5088830;28;19956;-75
2023/10/01 04:05:30;;;;;;;;;;;8.70;99.90;;;;;;5082619;28;20036;-74
2023/10/01 04:07:59;;;;;;;;;;;8.80;99.90;;;;;;5085369;28;19979;-74
2023/10/01 04:10:29;;;;;;;;;;;8.70;99.90;;;;;;5082861;28;19921;-74
2023/10/01 04:13:00;;;;;;;;;;;8.70;99.90;;;;;;5082860;28;20114;-74
2023/10/01 04:15:29;;;;;;;;;;;8.70;99.90;;;;;;5085827;28;19924;-74
2023/10/01 04:20:48;;;;;;;;;;;8.70;99.90;;;;;;5081784;28;19916;-76
2023/10/01 04:23:21;;;;;;;;;;;8.70;99.90;;;;;;5086152;28;20214;-76
2023/10/01 04:25:51;;;;;;;;;;;8.70;99.90;;;;;;5085815;28;19927;-75
2023/10/01 04:28:18;;;;;;;;;;;8.70;99.90;;;;;;5088913;28;19943;-74
2023/10/01 04:30:45;;;;;;;;;;;8.70;99.90;;;;;;5086430;28;19977;-75
2023/10/01 04:33:17;;;;;;;;;;;8.60;99.90;;;;;;5086050;28;20099;-75
2023/10/01 04:35:51;;;;;;;;;;;8.60;99.90;;;;;;5085425;28;20095;-75
2023/10/01 04:38:19;;;;;;;;;;;8.60;99.90;;;;;;5085631;28;20173;-74
2023/10/01 04:40:46;;;;;;;;;;;8.60;99.90;;;;;;5085520;28;19962;-74
2023/10/01 04:43:16;;;;;;;;;;;8.50;99.90;;;;;;5085868;28;19927;-75
2023/10/01 04:45:44;;;;;;;;;;;8.50;99.90;;;;;;5085286;28;19920;-74
2023/10/01 04:48:17;;;;;;;;;;;8.50;99.90;;;;;;5085666;28;19927;-75
2023/10/01 04:50:44;;;;;;;;;;;8.50;99.90;;;;;;5085765;28;19920;-74
2023/10/01 04:53:13;;;;;;;;;;;8.40;99.90;;;;;;5085612;28;19943;-75
2023/10/01 04:55:42;;;;;;;;;;;8.50;99.90;;;;;;5088089;28;20238;-74
2023/10/01 04:58:12;;;;;;;;;;;8.40;99.90;;;;;;5085174;28;19924;-75
2023/10/01 05:00:39;;;;;;;;;;;8.50;99.90;;;;;;5085297;28;19983;-73
2023/10/01 05:03:06;;;;;;;;;;;8.50;99.90;;;;;;5085565;28;20118;-74
2023/10/01 05:05:36;;;;;;;;;;;8.40;99.90;;;;;;5083727;28;20063;-75
2023/10/01 05:08:04;;;;;;;;;;;8.30;99.90;;;;;;5090082;28;19920;-75
2023/10/01 05:10:50;;;;;;;;;;;8.40;99.90;;;;;;5095960;28;19947;-75
2023/10/01 05:13:19;;;;;;;;;;;8.30;99.90;;;;;;5082842;28;19925;-74
2023/10/01 05:15:49;;;;;;;;;;;8.30;99.90;;;;;;5084202;28;19927;-75
2023/10/01 05:18:16;;;;;;;;;;;8.30;99.90;;;;;;5085016;28;19920;-74
2023/10/01 05:20:43;;;;;;;;;;;8.30;99.90;;;;;;5084783;28;20256;-75
2023/10/01 05:23:09;;;;;;;;;;;8.30;99.90;;;;;;5085104;28;19988;-75
2023/10/01 05:25:45;;;;;;;;;;;8.30;99.90;;;;;;5084519;28;19916;-75
2023/10/01 05:28:23;;;;;;;;;;;8.30;99.90;;;;;;5087976;28;19920;-75
2023/10/01 05:30:57;;;;;;;;;;;8.30;99.90;;;;;;5085160;28;19920;-75
2023/10/01 05:33:25;;;;;;;;;;;8.30;99.90;;;;;;5087070;28;19920;-75
2023/10/01 05:35:57;;;;;;;;;;;8.30;99.90;;;;;;5089418;28;19983;-75
2023/10/01 05:38:26;;;;;;;;;;;8.30;99.90;;;;;;5086400;28;19966;-74
2023/10/01 05:40:56;;;;;;;;;;;8.30;99.90;;;;;;5084393;28;19956;-75
2023/10/01 05:43:27;;;;;;;;;;;8.30;99.90;;;;;;5084641;28;19943;-75
2023/10/01 05:46:01;;;;;;;;;;;8.30;99.90;;;;;;5084395;28;19930;-74
2023/10/01 05:48:28;;;;;;;;;;;8.30;99.90;;;;;;5084151;28;20104;-74
2023/10/01 05:50:57;;;;;;;;;;;8.30;99.90;;;;;;5084664;28;19939;-75
2023/10/01 05:53:24;;;;;;;;;;;8.30;99.90;;;;;;5084499;28;19920;-75
2023/10/01 05:55:50;;;;;;;;;;;8.30;99.90;;;;;;5083883;28;19929;-75
2023/10/01 05:58:21;;;;;;;;;;;8.40;99.90;;;;;;5083968;28;20240;-74
2023/10/01 06:00:56;;;;;;;;;;;8.40;99.90;;;;;;5084008;28;19943;-75
2023/10/01 06:03:24;;;;;;;;;;;8.30;99.90;;;;;;5084115;28;19927;-75
2023/10/01 06:05:57;;;;;;;;;;;8.40;99.90;;;;;;5082975;28;19984;-75
2023/10/01 06:08:25;;;;;;;;;;;8.40;99.90;;;;;;5083719;28;20262;-74
2023/10/01 06:10:59;;;;;;;;;;;8.40;99.90;;;;;;5084203;28;20113;-74
2023/10/01 06:13:29;;;;;;;;;;;8.40;99.90;;;;;;5083768;28;19920;-74
2023/10/01 06:16:11;;;;;;;;;;;8.40;99.90;;;;;;5082415;28;19920;-75
2023/10/01 06:18:41;;;;;;;;;;;8.40;99.90;;;;;;5087422;28;19920;-75
2023/10/01 06:21:08;;;;;;;;;;;8.50;99.90;;;;;;5083939;28;20011;-75
2023/10/01 06:23:48;;;;;;;;;;;8.50;99.90;;;;;;5080403;28;19920;-75
2023/10/01 06:26:16;;;;;;;;;;;8.50;99.90;;;;;;5082873;28;19921;-75
2023/10/01 06:28:44;;;;;;;;;;;8.50;99.90;;;;;;5082026;28;19928;-75
2023/10/01 06:31:11;;;;;;;;;;;8.60;99.90;;;;;;5083769;28;19955;-75
2023/10/01 06:33:38;;;;;;;;;;;8.60;99.90;;;;;;5093399;28;19920;-75
2023/10/01 06:36:16;;;;;;;;;;;8.70;99.90;;;;;;5086785;28;19920;-75
2023/10/01 06:38:44;;;;;;;;;;;8.70;99.90;;;;;;5084110;28;19920;-75
2023/10/01 06:41:16;;;;;;;;;;;8.70;99.90;;;;;;5083716;28;19921;-75
2023/10/01 06:43:49;;;;;;;;;;;8.80;99.90;;;;;;5083361;28;20210;-76
2023/10/01 06:46:21;;;;;;;;;;;8.80;99.90;;;;;;5083239;28;20003;-75
2023/10/01 06:48:49;;;;;;;;;;;8.90;99.90;;;;;;5095532;28;19920;-75
2023/10/01 06:51:16;;;;;;;;;;;9.00;99.90;;;;;;5086219;28;19921;-75
2023/10/01 06:53:47;;;;;;;;;;;9.00;99.90;;;;;;5083592;28;20156;-75
2023/10/01 06:56:16;;;;;;;;;;;9.10;99.90;;;;;;5082888;28;19920;-75
2023/10/01 06:59:13;;;;;;;;;;;9.20;99.90;;;;;;5083373;28;19927;-75
2023/10/01 07:01:46;;;;;;;;;;;9.30;99.90;;;;;;5080701;28;20263;-74
2023/10/01 07:04:13;;;;;;;;;;;9.40;99.90;;;;;;5081004;28;19929;-75
2023/10/01 07:06:43;;;;;;;;;;;9.50;99.90;;;;;;5084441;28;19958;-75
2023/10/01 07:09:24;;;;;;;;;;;9.50;99.90;;;;;;5078146;28;19927;-75
2023/10/01 07:11:51;;;;;;;;;;;9.60;99.90;;;;;;5078378;28;19988;-75
2023/10/01 07:14:30;;;;;;;;;;;9.70;99.90;;;;;;5080016;28;19928;-75
2023/10/01 07:16:58;;;;;;;;;;;9.80;99.90;;;;;;5083008;28;19927;-75
2023/10/01 07:19:24;;;;;;;;;;;9.90;99.90;;;;;;5082962;28;19958;-75
2023/10/01 07:21:56;;;;;;;;;;;10.00;99.90;;;;;;5083382;28;19921;-75
2023/10/01 07:24:23;;;;;;;;;;;10.10;99.90;;;;;;5083093;28;19946;-75
2023/10/01 07:26:50;;;;;;;;;;;10.10;99.90;;;;;;5082825;28;19952;-75
2023/10/01 07:29:18;;;;;;;;;;;10.20;99.90;;;;;;5082482;28;20171;-74
2023/10/01 07:31:45;;;;;;;;;;;10.30;99.90;;;;;;5078184;28;19921;-75
2023/10/01 07:34:13;;;;;;;;;;;10.40;99.90;;;;;;5081597;28;19920;-75
2023/10/01 07:36:42;;;;;;;;;;;10.50;99.90;;;;;;5082582;28;20174;-75
2023/10/01 07:39:09;;;;;;;;;;;10.60;99.90;;;;;;5086008;28;20210;-75
2023/10/01 07:41:38;;;;;;;;;;;10.60;99.90;;;;;;5083742;28;19927;-75
2023/10/01 07:44:08;;;;;;;;;;;10.70;99.90;;;;;;5086671;28;19927;-75
2023/10/01 07:46:34;;;;;;;;;;;10.90;99.90;;;;;;5086142;28;19984;-74
2023/10/01 07:49:02;;;;;;;;;;;11.00;99.90;;;;;;5086826;28;19983;-75
2023/10/01 07:51:35;;;;;;;;;;;11.10;99.90;;;;;;5086874;28;20064;-75
2023/10/01 07:54:09;;;;;;;;;;;11.30;99.90;;;;;;5091251;28;19926;-75
2023/10/01 07:56:37;;;;;;;;;;;11.40;99.90;;;;;;5082766;28;19921;-74
2023/10/01 07:59:28;;;;;;;;;;;11.40;99.90;;;;;;5086430;28;19921;-75
2023/10/01 08:02:09;;;;;;;;;;;11.60;99.90;;;;;;5085741;28;20161;-76
2023/10/01 08:04:50;;;;;;;;;;;11.70;99.90;;;;;;5083120;28;19999;-76
2023/10/01 08:07:22;;;;;;;;;;;11.90;99.90;;;;;;5084291;28;19920;-75
2023/10/01 08:09:51;;;;;;;;;;;12.10;99.90;;;;;;5086445;28;19921;-75
2023/10/01 08:12:19;;;;;;;;;;;12.20;99.90;;;;;;5086355;28;19927;-74
2023/10/01 08:15:15;;;;;;;;;;;12.30;99.90;;;;;;5092878;28;19980;-75
2023/10/01 08:17:32;;;;;;;;;;;12.40;99.90;;;;;;5092696;28;19921;-75
2023/10/01 08:20:14;;;;;;;;;;;12.50;99.90;;;;;;5091023;28;19921;-75
2023/10/01 08:22:44;;;;;;;;;;;12.60;99.90;;;;;;5083740;28;19921;-73
2023/10/01 08:25:12;;;;;;;;;;;12.70;99.90;;;;;;5085439;28;19924;-80
2023/10/01 08:28:26;;;;;;;;;;;12.80;99.90;;;;;;5090843;28;19957;-76
2023/10/01 08:30:38;;;;;;;;;;;12.90;99.90;;;;;;5095255;28;19987;-77
2023/10/01 08:33:18;;;;;;;;;;;13.10;99.90;;;;;;5087398;28;19944;-75
2023/10/01 08:35:56;;;;;;;;;;;13.20;99.90;;;;;;5085560;28;19920;-75
2023/10/01 08:38:23;;;;;;;;;;;13.30;99.90;;;;;;5093076;28;19920;-75
2023/10/01 08:40:52;;;;;;;;;;;13.40;99.90;;;;;;5091704;28;20185;-73
2023/10/01 08:43:22;;;;;;;;;;;13.50;99.90;;;;;;5087581;28;19983;-72
2023/10/01 08:45:49;;;;;;;;;;;13.60;99.90;;;;;;5081871;28;19921;-72
2023/10/01 08:48:17;;;;;;;;;;;13.80;99.90;;;;;;5084900;28;20260;-72
2023/10/01 08:50:45;;;;;;;;;;;14.00;99.90;;;;;;5082326;28;19925;-72
2023/10/01 08:53:14;;;;;;;;;;;14.20;99.90;;;;;;5088725;28;19920;-72
2023/10/01 08:56:04;;;;;;;;;;;14.40;99.90;;;;;;5086858;28;19928;-71
2023/10/01 08:58:41;;;;;;;;;;;14.60;99.90;;;;;;5082509;28;20156;-71
2023/10/01 09:01:12;;;;;;;;;;;14.70;99.90;;;;;;5080595;28;20233;-72
2023/10/01 09:03:39;;;;;;;;;;;14.80;99.90;;;;;;5084956;28;19924;-73
2023/10/01 09:06:08;;;;;;;;;;;14.90;99.90;;;;;;5082421;28;19920;-72
2023/10/01 09:08:43;;;;;;;;;;;15.00;99.90;;;;;;5088437;28;19920;-72
2023/10/01 09:11:13;;;;;;;;;;;15.10;99.90;;;;;;5084632;28;19920;-72
2023/10/01 09:13:46;;;;;;;;;;;15.20;99.90;;;;;;5084099;28;19927;-72
2023/10/01 09:16:13;;;;;;;;;;;15.40;99.90;;;;;;5087359;28;19964;-73
2023/10/01 09:19:03;;;;;;;;;;;15.50;99.90;;;;;;5089490;28;20223;-72
2023/10/01 09:21:31;;;;;;;;;;;15.60;99.90;;;;;;5084880;28;20067;-76
2023/10/01 09:24:12;;;;;;;;;;;15.80;99.90;;;;;;5084737;28;19963;-73
2023/10/01 09:26:40;;;;;;;;;;;15.90;99.90;;;;;;5081047;28;19921;-74
2023/10/01 09:29:20;;;;;;;;;;;16.00;99.90;;;;;;5084799;28;19924;-71
2023/10/01 09:31:52;;;;;;;;;;;16.10;99.90;;;;;;5082963;28;19988;-72
2023/10/01 09:34:31;;;;;;;;;;;16.30;99.90;;;;;;5082773;28;19920;-74
2023/10/01 09:37:00;;;;;;;;;;;16.50;99.90;;;;;;5083159;28;19920;-75
2023/10/01 09:39:36;;;;;;;;;;;16.70;99.90;;;;;;5089324;28;19927;-75
2023/10/01 09:42:03;;;;;;;;;;;16.80;99.90;;;;;;5084568;28;19959;-74
2023/10/01 09:44:46;;;;;;;;;;;16.90;99.90;;;;;;5084147;28;20293;-74
2023/10/01 09:47:13;;;;;;;;;;;17.00;99.90;;;;;;5080893;28;20237;-74
2023/10/01 09:49:40;;;;;;;;;;;17.10;99.90;;;;;;5083943;28;20259;-75
2023/10/01 09:52:08;;;;;;;;;;;17.20;99.90;;;;;;5084112;28;19926;-75
2023/10/01 09:54:41;;;;;;;;;;;17.40;99.90;;;;;;5083208;28;19962;-75
2023/10/01 09:57:09;;;;;;;;;;;17.50;99.90;;;;;;5086035;28;19920;-74
2023/10/01 09:59:39;;;;;;;;;;;17.60;99.90;;;;;;5084377;28;20304;-75
2023/10/01 10:02:06;;;;;;;;;;;17.80;99.90;;;;;;5083329;28;19920;-75
2023/10/01 10:04:39;;;;;;;;;;;17.90;99.90;;;;;;5083679;28;19958;-75
2023/10/01 10:07:07;;;;;;;;;;;18.10;99.90;;;;;;5089083;28;20160;-75
2023/10/01 10:09:37;;;;;;;;;;;18.20;99.90;;;;;;5097421;28;19920;-75
2023/10/01 10:12:07;;;;;;;;;;;18.30;99.90;;;;;;5088226;28;19924;-75
2023/10/01 10:14:56;;;;;;;;;;;18.40;99.90;;;;;;5085815;28;19924;-75
2023/10/01 10:17:25;;;;;;;;;;;18.50;99.90;;;;;;5083643;28;19920;-75
2023/10/01 10:20:00;;;;;;;;;;;18.60;99.90;;;;;;5083938;28;19920;-74
2023/10/01 10:22:32;;;;;;;;;;;18.70;99.90;;;;;;5086192;28;20013;-74
2023/10/01 10:25:13;;;;;;;;;;;18.90;99.90;;;;;;5087324;28;19920;-74
2023/10/01 10:27:50;;;;;;;;;;;19.00;99.90;;;;;;5079044;28;19983;-74
2023/10/01 10:30:17;;;;;;;;;;;19.10;99.90;;;;;;5083739;28;19926;-74
2023/10/01 10:33:02;;;;;;;;;;;19.20;99.90;;;;;;5083837;28;19948;-74
2023/10/01 10:35:29;;;;;;;;;;;19.40;99.90;;;;;;5083448;28;19924;-74
2023/10/01 10:37:56;;;;;;;;;;;19.50;99.90;;;;;;5083756;28;19924;-74
2023/10/01 10:40:28;;;;;;;;;;;19.60;99.90;;;;;;5083825;28;19951;-74
2023/10/01 10:43:19;;;;;;;;;;;19.70;99.90;;;;;;5083551;28;19936;-74
2023/10/01 10:45:59;;;;;;;;;;;19.70;99.90;;;;;;5081407;28;19952;-74
2023/10/01 10:48:39;;;;;;;;;;;19.90;99.90;;;;;;5083744;28;19948;-74
2023/10/01 10:51:06;;;;;;;;;;;20.00;99.90;;;;;;5078603;28;19917;-74
2023/10/01 10:53:39;;;;;;;;;;;20.20;99.90;;;;;;5083723;28;20095;-75
2023/10/01 10:56:07;;;;;;;;;;;20.30;99.90;;;;;;5078764;28;19923;-74
2023/10/01 10:58:37;;;;;;;;;;;20.50;99.90;;;;;;5083443;28;19942;-75
2023/10/01 11:01:16;;;;;;;;;;;20.60;99.90;;;;;;5078948;28;19920;-75
2023/10/01 11:03:44;;;;;;;;;;;20.60;99.90;;;;;;5081279;28;19967;-74
2023/10/01 11:06:18;;;;;;;;;;;20.70;99.90;;;;;;5082862;28;19920;-74
2023/10/01 11:08:50;;;;;;;;;;;20.80;99.90;;;;;;5083514;28;19947;-75
2023/10/01 11:11:21;;;;;;;;;;;21.00;99.90;;;;;;5083653;28;19926;-74
2023/10/01 11:13:59;;;;;;;;;;;21.10;99.90;;;;;;5086224;28;19987;-74
2023/10/01 11:16:33;;;;;;;;;;;21.30;99.90;;;;;;5087044;28;19928;-74
2023/10/01 11:19:12;;;;;;;;;;;21.30;99.90;;;;;;5081880;28;19920;-75
2023/10/01 11:21:58;;;;;;;;;;;21.40;99.90;;;;;;5084206;28;19920;-75
2023/10/01 11:24:26;;;;;;;;;;;21.50;99.90;;;;;;5086776;28;19924;-75
2023/10/01 11:27:14;;;;;;;;;;;21.60;99.90;;;;;;5090361;28;19920;-75
2023/10/01 11:29:43;;;;;;;;;;;21.80;99.90;;;;;;5084626;28;19921;-74
2023/10/01 11:32:16;;;;;;;;;;;22.00;99.90;;;;;;5087242;28;19956;-75
2023/10/01 11:34:46;;;;;;;;;;;22.00;99.90;;;;;;5083282;28;19928;-75
2023/10/01 11:37:16;;;;;;;;;;;22.20;99.90;;;;;;5090417;28;19921;-74
2023/10/01 11:39:49;;;;;;;;;;;22.30;99.90;;;;;;5088993;28;19991;-75
2023/10/01 11:42:25;;;;;;;;;;;22.50;99.90;;;;;;5087050;28;19927;-75
2023/10/01 11:44:53;;;;;;;;;;;22.60;99.90;;;;;;5086602;28;20225;-74
2023/10/01 11:47:31;;;;;;;;;;;22.70;99.90;;;;;;5086232;28;19987;-75
2023/10/01 11:50:07;;;;;;;;;;;22.80;99.90;;;;;;5086933;28;19921;-74
2023/10/01 11:52:43;;;;;;;;;;;23.00;99.90;;;;;;5086589;28;19924;-75
2023/10/01 11:55:18;;;;;;;;;;;23.10;99.90;;;;;;5095935;28;19948;-75
2023/10/01 11:57:51;;;;;;;;;;;23.20;99.90;;;;;;5094378;28;19921;-74
2023/10/01 12:00:52;;;;;;;;;;;23.30;99.90;;;;;;5085995;28;19955;-75
2023/10/01 12:03:10;;;;;;;;;;;23.40;99.90;;;;;;5086245;28;19959;-74
2023/10/01 12:05:41;;;;;;;;;;;23.50;99.90;;;;;;5082865;28;19921;-74
2023/10/01 12:08:14;;;;;;;;;;;23.60;99.90;;;;;;5086324;28;19921;-75
2023/10/01 12:10:41;;;;;;;;;;;23.80;99.90;;;;;;5083790;28;20206;-74
2023/10/01 12:13:10;;;;;;;;;;;23.80;99.90;;;;;;5086285;28;19956;-74
2023/10/01 12:15:43;;;;;;;;;;;23.90;99.90;;;;;;5085802;28;20218;-73
2023/10/01 12:18:14;;;;;;;;;;;24.00;99.90;;;;;;5085863;28;20268;-74
2023/10/01 12:20:47;;;;;;;;;;;24.00;99.90;;;;;;5085283;28;19920;-76
2023/10/01 12:23:15;;;;;;;;;;;24.10;99.90;;;;;;5086306;28;19978;-74
2023/10/01 12:25:46;;;;;;;;;;;24.20;99.90;;;;;;5084602;28;19958;-75
2023/10/01 12:28:17;;;;;;;;;;;24.30;99.90;;;;;;5085891;28;19920;-74
2023/10/01 12:30:47;;;;;;;;;;;24.40;99.90;;;;;;5086078;28;20181;-73
2023/10/01 12:33:14;;;;;;;;;;;24.50;99.90;;;;;;5086003;28;19956;-74
2023/10/01 12:35:41;;;;;;;;;;;24.60;99.90;;;;;;5085301;28;19927;-74
2023/10/01 12:38:26;;;;;;;;;;;24.60;99.90;;;;;;5086112;28;19983;-74
2023/10/01 12:40:52;;;;;;;;;;;24.60;99.90;;;;;;5084810;28;19963;-75
2023/10/01 12:43:39;;;;;;;;;;;24.80;99.90;;;;;;5085633;28;19916;-74
2023/10/01 12:46:18;;;;;;;;;;;24.90;99.90;;;;;;5085541;28;19963;-75
2023/10/01 12:51:33;;;;;;;;;;;25.10;99.90;;;;;;5085533;28;19923;-76
2023/10/01 12:54:02;;;;;;;;;;;25.20;99.90;;;;;;5080566;28;19921;-74
2023/10/01 12:56:44;;;;;;;;;;;25.20;99.90;;;;;;5085180;28;19978;-73
2023/10/01 12:59:18;;;;;;;;;;;25.30;99.90;;;;;;5086668;28;19921;-75
2023/10/01 13:01:50;;;;;;;;;;;25.40;99.90;;;;;;5083632;28;19927;-75
2023/10/01 13:04:22;;;;;;;;;;;25.50;99.90;;;;;;5085519;28;19984;-74
2023/10/01 13:06:49;;;;;;;;;;;25.60;99.90;;;;;;5084979;28;19920;-75
2023/10/01 13:11:59;;;;;;;;;;;25.60;99.90;;;;;;5085529;28;19917;-75
2023/10/01 13:14:29;;;;;;;;;;;25.70;99.90;;;;;;5087153;28;20003;-75
2023/10/01 13:17:00;;;;;;;;;;;25.70;99.90;;;;;;5091097;28;19927;-75
2023/10/01 13:19:33;;;;;;;;;;;25.90;99.90;;;;;;5091833;28;19942;-75
2023/10/01 13:22:03;;;;;;;;;;;26.00;99.90;;;;;;5081133;28;20207;-75
2023/10/01 13:24:31;;;;;;;;;;;26.10;99.90;;;;;;5084679;28;19920;-74
2023/10/01 13:27:10;;;;;;;;;;;26.20;99.90;;;;;;5097825;28;19983;-77
2023/10/01 13:29:37;;;;;;;;;;;26.30;99.90;;;;;;5091735;28;19920;-75
2023/10/01 13:32:15;;;;;;;;;;;26.40;98.80;;;;;;5084902;28;19983;-75
2023/10/01 13:34:48;;;;;;;;;;;26.40;98.80;;;;;;5082020;28;19962;-74
2023/10/01 13:37:42;;;;;;;;;;;26.50;99.90;;;;;;5084173;28;19925;-75
2023/10/01 13:40:14;;;;;;;;;;;26.70;99.00;;;;;;5084630;28;19946;-74
2023/10/01 14:23:44;;;;;;;;;;;27.40;92.60;;;;;;5039807;28;20241;-75
2023/10/01 14:26:13;;;;;;;;;;;27.40;92.50;;;;;;5052782;28;19951;-75
2023/10/01 14:28:40;;;;;;;;;;;27.40;91.80;;;;;;5084005;28;19956;-75
2023/10/01 14:31:06;;;;;;;;;;;27.50;92.60;;;;;;5084278;28;19920;-76
2023/10/01 14:33:34;;;;;;;;;;;27.40;91.90;;;;;;5084096;28;19921;-75
2023/10/01 14:36:02;;;;;;;;;;;27.40;92.70;;;;;;5086797;28;19921;-75
2023/10/01 14:38:37;;;;;;;;;;;27.40;91.50;;;;;;5089988;28;19942;-75
2023/10/01 14:41:10;;;;;;;;;;;27.40;92.30;;;;;;5088986;28;19966;-76
2023/10/01 14:43:41;;;;;;;;;;;27.40;92.20;;;;;;5085929;28;19966;-77
2023/10/01 14:46:13;;;;;;;;;;;27.50;91.60;;;;;;5092955;28;19957;-74
2023/10/01 14:48:41;;;;;;;;;;;27.50;91.80;;;;;;5079990;28;19928;-73
2023/10/01 14:51:07;;;;;;;;;;;27.50;91.10;;;;;;5081649;28;19928;-75
2023/10/01 14:53:36;;;;;;;;;;;27.40;91.10;;;;;;5083444;28;20278;-76
2023/10/01 14:56:04;;;;;;;;;;;27.30;92.40;;;;;;5078170;28;19920;-73
2023/10/01 14:58:43;;;;;;;;;;;;;;;;;;;;;
2023/10/01 15:01:10;;;;;;;;;;;27.20;91.20;;;;;;5084410;28;19956;-73
2023/10/01 15:03:37;;;;;;;;;;;27.20;90.70;;;;;;5083938;28;19924;-73
2023/10/01 15:06:05;;;;;;;;;;;27.10;92.10;;;;;;5090609;28;19928;-73
2023/10/01 15:08:33;;;;;;;;;;;27.10;91.10;;;;;;5091399;28;19932;-73
2023/10/01 15:11:11;;;;;;;;;;;27.10;91.70;;;;;;5076683;28;19920;-73
2023/10/01 15:13:40;;;;;;;;;;;27.20;91.50;;;;;;5079572;28;19979;-74
2023/10/01 15:16:12;;;;;;;;;;;27.10;92.40;;;;;;5082317;28;19963;-74
2023/10/01 15:18:40;;;;;;;;;;;27.00;91.40;;;;;;5077990;28;19920;-73
2023/10/01 15:23:59;;;;;;;;;;;27.00;92.50;;;;;;5079663;28;19916;-73
2023/10/01 15:26:28;;;;;;;;;;;27.00;92.10;;;;;;5081862;28;19944;-74
2023/10/01 15:28:57;;;;;;;;;;;27.00;93.10;;;;;;5082397;28;19944;-74
2023/10/01 15:31:31;;;;;;;;;;;26.90;92.40;;;;;;5082553;28;20015;-73
2023/10/01 15:34:01;;;;;;;;;;;26.80;91.40;;;;;;5082645;28;19921;-74
2023/10/01 15:36:41;;;;;;;;;;;26.70;92.20;;;;;;5082241;28;20127;-74
2023/10/01 15:39:27;;;;;;;;;;;26.60;91.90;;;;;;5082033;28;19963;-74
2023/10/01 15:42:08;;;;;;;;;;;26.40;90.70;;;;;;5082015;28;19920;-75
2023/10/01 15:44:43;;;;;;;;;;;26.20;91.20;;;;;;5087168;28;20456;-75
2023/10/01 15:47:11;;;;;;;;;;;26.00;91.80;;;;;;5087299;28;19923;-74
2023/10/01 15:52:18;;;;;;;;;;;25.50;91.70;;;;;;5081467;28;19935;-74